Tiempo atmosférico en la estación meteorológica de Andújar, Jaén (193 m.)



Fecha
DESCASC
Temp. máxima en grados centígrados (hora)
DESCASC
Temp. mínima en grados centígrados (hora)
DESCASC
Temp. media en grados centígrados
DESCASC
Racha de viento máxima en m/sg (hora)
DESCASC
Velocidad máxima media en intervalos de 10 minutos(hora)
DESCASC
Precipitaciones diarias en mm
DESCASC
Precipitaciones de 00:00 a 06:00 en mm
DESCASC
Precipitaciones de 06:00 a 12:00 en mm
DESCASC
Precipitaciones de 12:00 a 18:00 en mm
DESCASC
Precipitaciones de 18:00 a 24:00 en mm
DESCASC
13-02-2020 19.3 (14:50) 9.5 (23:30) 14.4 4.17 (15:20) 2.5 (10:20) 0 0 0 0 0
12-02-2020 16.9 (16:10) 8.2 (01:10) 12.5 3.89 (21:10) 2.78 (21:10) 0 0 0 0 0
11-02-2020 21.3 (15:30) 4.7 (08:10) 13 5 (14:50) 3.61 (16:50) 0 0 0 0 0
10-02-2020 22.7 (17:00) 4.4 (00:00) 13.6 4.17 (12:00) 2.22 (11:20) 0 0 0 0 0
09-02-2020 20.4 (16:00) 7.9 (00:00) 14.1 5 (12:20) 2.22 (12:30) 0 0 0 0 0
08-02-2020 15.6 (15:00) 5.5 (00:00) 10.6 5.83 (14:40) 4.17 (14:40) 0 0 0 0 0
07-02-2020 18.4 (15:40) 4.2 (00:00) 11.3 5.83 (15:00) 3.89 (15:00) 0 0 0 0 0
06-02-2020 20.2 (17:00) 4.1 (00:00) 12.2 5.28 (14:20) 2.5 (12:00) 0 0 0 0 0
05-02-2020 23 (16:10) 5.9 (00:00) 14.5 7.5 (11:50) 4.72 (11:50) 0 0 0 0 0
04-02-2020 25.4 (16:20) 4.2 (00:00) 14.8 4.44 (14:10) 2.5 (14:10) 0 0 0 0 0
03-02-2020 24.7 (16:00) 7.4 (08:30) 16.1 4.72 (08:50) 2.5 (05:00) 0 0 0 0 0
02-02-2020 24 (17:10) 6.5 (00:00) 15.3 5.56 (11:50) 3.33 (12:30) 0 0 0 0 0
01-02-2020 20.7 (17:20) 11.2 (00:00) 16 3.89 (12:40) 2.78 (13:40) 0.2 0 0.2 0 0
31-01-2020 19.1 (14:50) 8.9 (00:00) 14 5 (23:50) 3.33 (15:50) 0 0 0 0 0
30-01-2020 15.8 (16:20) 6.7 (00:00) 11.3 5.83 (16:20) 3.89 (15:00) 0 0 0 0 0
29-01-2020 18.1 (16:50) 7.7 (00:00) 12.9 4.17 (12:30) 2.5 (12:30) 0 0 0 0 0
28-01-2020 14.9 (14:50) 7.7 (00:00) 11.3 3.06 (15:10) 2.22 (15:10) 0 0 0 0 0
27-01-2020 13.8 (15:00) 3.8 (00:00) 8.8 3.33 (13:30) 1.67 (11:00) 0 0 0 0 0
26-01-2020 13.3 (16:20) 4.8 (00:00) 9.1 6.39 (13:50) 4.72 (14:10) 0 0 0 0 0
25-01-2020 10.5 (14:00) 8.5 (00:00) 9.5 4.44 (11:40) 2.5 (11:20) 18.5 1.7 3.8 4.6 8.4
24-01-2020 16.5 (15:00) 8 (00:00) 12.3 4.72 (21:30) 3.06 (12:00) 2.4 1.6 0 0 0.8
23-01-2020 13.2 (14:20) 4.9 (00:00) 9 5 (10:40) 3.06 (10:40) 0.3 0.2 0.1 0 0
22-01-2020 14.9 (14:40) 4.6 (00:00) 9.7 6.11 (18:20) 3.33 (19:00) 1 1 0 0 0
21-01-2020 11.1 (14:50) 2.6 (00:00) 6.9 8.06 (14:00) 3.89 (14:10) 0.1 0 0 0 0.1
20-01-2020 12.4 (14:30) 5.3 (00:00) 8.8 11.39 (13:40) 4.72 (15:40) 0 0 0 0 0
19-01-2020 11.5 (16:40) 6.7 (00:00) 9.1 8.33 (22:00) 3.89 (01:30) 0.8 0.1 0 0.6 0.1
18-01-2020 11.4 (15:50) 6.1 (00:00) 8.7 5.56 (23:59) 3.61 (23:59) 8.1 0 3.1 1.4 3.6

Gráficas

Temp. máximas Temp. mínimas Temp. medias Precipitaciones Rachas de viento máximas Velocidades máximas media en intervalos de 10 minutos

Datos horarios

Fecha y hora oficial Temperatura (ºC) Velocidad del viento (km/h) Dirección del viento Racha (km/h) Dirección de racha Precipitación (mm) Presión (hPa) Tendencia (hPa) Humedad (%)
2020-02-16 23:00:00 8.7 3 Este 5 Este 0 1003 1.2 92
2020-02-16 22:00:00 9.5 0 Calma 4 Este 0 1002.6 1.1 88
2020-02-16 21:00:00 11.4 0 Calma 3 Oeste 0 1002.2 1.2 74
2020-02-16 20:00:00 13.1 2 Oeste 8 Oeste 0 1001.8 0.7 60
2020-02-16 19:00:00 15.8 4 Sudoeste 8 Oeste 0 1001.5 0.3 53
2020-02-16 18:00:00 21 7 Oeste 16 Oeste 0 1001 -0.7 38
2020-02-16 17:00:00 22.1 8 Oeste 16 Noroeste 0 1001.1 -1.5 34
2020-02-16 16:00:00 21.3 9 Noroeste 14 Noroeste 0 1001.2 -2.3 37
2020-02-16 15:00:00 21.5 2 Noroeste 8 Noroeste 0 1001.7 -2.5 38
2020-02-16 14:00:00 18.8 0 Calma 7 Sur 0 1002.6 -1.7 42
2020-02-16 13:00:00 18 3 Este 10 Este 0 1003.5 -1 48
2020-02-16 12:00:00 15.3 5 Este 13 Este 0 1004.2 0.1 62
2020-02-16 11:00:00 11.8 5 Este 10 Este 0 1004.3 0.9 72
2020-02-16 10:00:00 7.6 0 Calma 6 Sudeste 0 1004.5 1.6 99
2020-02-16 09:00:00 5.1 0 Calma -- -- 0 1004.1 1.2 99
2020-02-16 08:00:00 4 0 Calma 3 Este 0 1003.4 0.8 99
2020-02-16 07:00:00 4.6 0 Calma 4 Sudeste 0 1002.9 0.2 99
2020-02-16 06:00:00 4.9 0 Calma 2 Sudoeste 0 1002.9 0.1 99
2020-02-16 05:00:00 5.8 0 Calma 2 Noroeste 0 1002.6 -0.5 99
2020-02-16 04:00:00 6.5 0 Calma 7 Oeste 0 1002.7 -0.4 99
2020-02-16 03:00:00 6.2 4 Sudeste 6 Este 0 1002.8 -0.3 99
2020-02-16 02:00:00 6.1 0 Calma 5 Sudeste 0 1003.1 0.6 99
2020-02-16 01:00:00 7.3 4 Sudeste 8 Este 0 1003.1 0.8 98
2020-02-16 00:00:00 7.7 0 Calma 2 Noroeste 0 1003.1 1.3 98
2020-02-15 23:00:00 8.6 0 Calma 4 Oeste 0 1002.5 0.9 95
2020-02-15 22:00:00 10.6 0 Calma 6 Este 0 1002.3 1.5 91
2020-02-15 21:00:00 11 0 Calma 4 Sudeste 0 1001.8 2 84
2020-02-15 20:00:00 13.5 3 Sudoeste 6 Oeste 0 1001.6 1.6 65
2020-02-15 19:00:00 15.9 4 Oeste 8 Oeste 0 1000.8 0.3 52
2020-02-15 18:00:00 20.7 5 Oeste 9 Sudoeste 0 999.8 -0.9 36
2020-02-15 17:00:00 21.6 0 Calma 13 Sudoeste 0 1000 -1.6 34
2020-02-15 16:00:00 21.6 4 Noroeste 15 Sudoeste 0 1000.5 -1.9 37
2020-02-15 15:00:00 20.5 0 Calma 8 Noroeste 0 1000.7 -1.9 41
2020-02-15 14:00:00 19.8 2 Norte 8 Sudeste 0 1001.6 -1 42
2020-02-15 13:00:00 17.8 0 Calma 10 Este 0 1002.4 0 50
2020-02-15 12:00:00 14.8 4 Sudeste 11 Sudeste 0 1002.6 0.6 60
2020-02-15 11:00:00 11.9 5 Este 11 Sudeste 0 1002.6 1.5 75
2020-02-15 10:00:00 8.8 2 Sudeste 8 Sudeste 0 1002.4 2 99
2020-02-15 09:00:00 5.7 2 Este 10 Sudeste 0 1002 2 99
2020-02-15 08:00:00 4.3 0 Calma 4 Este 0 1001.1 1.4 99
2020-02-15 07:00:00 4.8 0 Calma 2 Este 0 1000.4 0.3 99
2020-02-15 06:00:00 6 0 Calma -- -- 0 1000 0.1 99
2020-02-15 05:00:00 5.8 0 Calma -- -- 0 999.7 -0.3 99
2020-02-15 04:00:00 6.6 0 Calma -- -- 0 1000.1 -0.3 99
2020-02-15 03:00:00 6.4 0 Calma -- -- 0 999.9 -0.5 99
2020-02-15 02:00:00 7.3 0 Calma 6 Sudeste 0 1000 -0.5 99
2020-02-15 01:00:00 7.8 0 Calma 6 Este 0 1000.4 0.7 98
2020-02-15 00:00:00 7.9 2 Este 5 Sudeste 0 1000.4 0.9 98
2020-02-14 23:00:00 8.9 2 Sudeste 6 Este 0 1000.5 1.3 95
2020-02-14 22:00:00 9.8 0 Calma 3 Sudoeste 0 999.7 1.3 91
2020-02-14 21:00:00 12.1 2 Oeste 5 Oeste 0 999.5 1.5 78
2020-02-14 20:00:00 13.4 3 Oeste 9 Sudoeste 0 999.2 1.3 68
2020-02-14 19:00:00 15.1 7 Sudoeste 8 Sudoeste 0 998.4 0.3 59
2020-02-14 18:00:00 20 4 Sudoeste 8 Sudoeste 0 998 -0.8 39
2020-02-14 17:00:00 21.2 4 Sur 10 Sudoeste 0 997.9 -1.9 37
2020-02-14 16:00:00 20.7 3 Sudoeste 9 Sudoeste 0 998.1 -2.6 37
2020-02-14 15:00:00 19.5 5 Sudeste 15 Este 0 998.8 -2.7 41
2020-02-14 14:00:00 18.6 5 Este 20 Sudeste 0 999.8 -2 48
2020-02-14 13:00:00 17.2 8 Sudeste 18 Este 0 1000.7 -1.2 55
2020-02-14 12:00:00 14.7 8 Este 14 Este 0 1001.5 0.1 62
2020-02-14 11:00:00 11.6 6 Este 13 Este 0 1001.8 0.6 81
2020-02-14 10:00:00 8 0 Calma 3 Sudeste 0 1001.9 1.1 99
2020-02-14 09:00:00 6 0 Calma 4 Este 0 1001.4 0.8 99
2020-02-14 08:00:00 4.8 0 Calma 0 Calma 0 1001.2 0.7 99
2020-02-14 07:00:00 5.4 0 Calma 3 Nordeste 0 1000.8 0.1 99
2020-02-14 06:00:00 5.4 0 Calma 4 Sudeste 0 1000.6 -0.3 99
2020-02-14 05:00:00 6.1 0 Calma 5 Este 0 1000.5 -0.6 99
2020-02-14 04:00:00 6.2 3 Este 5 Este 0 1000.7 -0.4 99
2020-02-14 03:00:00 6.7 0 Calma -- -- 0 1000.9 -0.4 99
2020-02-14 02:00:00 7.7 0 Calma 5 Este 0 1001.1 0.4 99
2020-02-14 01:00:00 8.4 0 Calma 7 Sudeste 0 1001.1 0.4 99
2020-02-14 00:00:00 9.6 3 Sur 5 Sudoeste 0 1001.3 0.9 99
2020-02-13 23:00:00 9.9 0 Calma 6 Este 0 1000.7 0.2 98
2020-02-13 22:00:00 12.2 3 Oeste 4 Sudoeste 0 1000.7 0.8 90
2020-02-13 21:00:00 13.7 2 Sudoeste 4 Oeste 0 1000.4 1.1 81
2020-02-13 20:00:00 15.1 0 Calma 5 Oeste 0 1000.5 1.3 75
2020-02-13 19:00:00 15.9 5 Oeste 6 Oeste 0 999.9 1 66
2020-02-13 18:00:00 16.9 4 Oeste 9 Noroeste 0 999.3 0.2 59
2020-02-13 17:00:00 17.4 4 Noroeste 10 Noroeste 0 999.2 -0.7 53
2020-02-13 16:00:00 17.3 4 Norte 15 Oeste 0 998.9 -2.1 59
2020-02-13 15:00:00 18.3 5 Sudoeste 12 Sudoeste 0 999.1 -2.3 56
2020-02-13 14:00:00 16.8 6 Noroeste 12 Noroeste 0 999.9 -1.4 69
2020-02-13 13:00:00 15.5 4 Oeste 14 Oeste 0 1001 0.3 73
2020-02-13 12:00:00 15 8 Oeste 13 Oeste 0 1001.4 1.5 81
2020-02-13 11:00:00 13.3 9 Oeste 13 Oeste 0 1001.3 2.2 90
2020-02-13 10:00:00 12.9 8 Noroeste 12 Noroeste 0 1000.7 1.7 94
2020-02-13 09:00:00 12.4 7 Noroeste 10 Noroeste 0 999.9 1.2 95
2020-02-13 08:00:00 12.5 6 Oeste 11 Oeste 0 999.1 0.8 94
2020-02-13 07:00:00 12.6 4 Oeste 9 Oeste 0 999 0.3 94
2020-02-13 06:00:00 12.6 6 Oeste 12 Noroeste 0 998.7 -0.4 94
2020-02-13 05:00:00 12.7 5 Noroeste 9 Oeste 0 998.3 -0.9 93
2020-02-13 04:00:00 13 5 Oeste 8 Oeste 0 998.7 -0.9 91
2020-02-13 03:00:00 13.2 4 Oeste 8 Oeste 0 999.1 -0.1 92
2020-02-13 02:00:00 13.2 3 Oeste 8 Oeste 0 999.2 0.1 91
2020-02-13 01:00:00 13.4 5 Oeste 8 Noroeste 0 999.6 0.5 90
2020-02-13 00:00:00 13.9 0 Calma 9 Sudoeste 0 999.2 0.6 84
2020-02-12 23:00:00 14.1 4 Sudoeste 9 Sudoeste 0 999.1 0.9 83
2020-02-12 22:00:00 14.4 5 Sudoeste 14 Sudoeste 0 999.1 1.3 80
2020-02-12 21:00:00 14.9 9 Sudoeste 13 Oeste 0 998.6 1 79
2020-02-12 20:00:00 15 6 Sudoeste 12 Sudoeste 0 998.2 0.7 80
2020-02-12 19:00:00 15.3 4 Sudoeste 10 Oeste 0 997.8 0.2 76
2020-02-12 18:00:00 16.1 9 Oeste 13 Oeste 0 997.6 -0.6 72
2020-02-12 17:00:00 16.2 3 Oeste 9 Oeste 0 997.5 -1.6 70
2020-02-12 16:00:00 16.3 0 Calma 8 Oeste 0 997.6 -2.2 70
2020-02-12 15:00:00 16.4 3 Norte 7 Noroeste 0 998.2 -2.1 71
2020-02-12 14:00:00 15.3 2 Noroeste 10 Norte 0 999.1 -1.4 76
2020-02-12 13:00:00 14.7 6 Noroeste 12 Noroeste 0 999.8 -0.6 80
2020-02-12 12:00:00 14.3 5 Oeste 12 Oeste 0 1000.3 0.4 87
2020-02-12 11:00:00 12.7 6 Noroeste 9 Oeste 0 1000.5 0.7 97
2020-02-12 10:00:00 12.1 6 Oeste 10 Noroeste 0 1000.4 0.7 99
2020-02-12 09:00:00 11.8 0 Calma 3 Sudeste 0 999.9 0.2 99
2020-02-12 08:00:00 11.5 0 Calma -- -- 0 999.8 -0.2 98
2020-02-12 07:00:00 11.4 0 Calma -- -- 0 999.7 -0.2 97
2020-02-12 06:00:00 10.9 0 Calma 3 Este 0 999.7 -0.3 97
2020-02-12 05:00:00 10.8 0 Calma 2 Nordeste 0 1000 -0.1 99
2020-02-12 04:00:00 10.6 0 Calma 5 Este 0 999.9 -0.2 99
2020-02-12 03:00:00 10 0 Calma -- -- 0 1000 -0.3 99
2020-02-12 02:00:00 9.1 0 Calma 4 Sudoeste 0 1000.1 -0.5 99
2020-02-12 01:00:00 8.9 0 Calma 4 Este 0 1000.1 -0.2 99
2020-02-12 00:00:00 9.9 0 Calma 0 Calma 0 1000.3 0.1 99
2020-02-11 23:00:00 10.5 0 Calma -- -- 0 1000.6 0.6 97
2020-02-11 22:00:00 11.1 0 Calma 4 Este 0 1000.3 0.8 95
2020-02-11 21:00:00 13.2 0 Calma 4 Oeste 0 1000.2 1 87
2020-02-11 20:00:00 15.1 3 Noroeste 7 Noroeste 0 1000 0.5 76
2020-02-11 19:00:00 16.2 6 Sudoeste 12 Oeste 0 999.5 -0.5 68
2020-02-11 18:00:00 20 8 Oeste 16 Sudoeste 0 999.2 -1.5 49
2020-02-11 17:00:00 20.6 10 Sudoeste 18 Sudoeste 0 999.5 -2.4 47
2020-02-11 16:00:00 20.4 11 Oeste 18 Oeste 0 1000 -3.1 47
2020-02-11 15:00:00 20.2 10 Oeste 18 Oeste 0 1000.7 -3.2 47
2020-02-11 14:00:00 18.6 3 Noroeste 9 Noroeste 0 1001.9 -2.1 51
2020-02-11 13:00:00 16.4 2 Noroeste 8 Este 0 1003.1 -1 53
2020-02-11 12:00:00 14 3 Este 8 Nordeste 0 1003.9 0.4 61
2020-02-11 11:00:00 12.5 2 Este 7 Nordeste 0 1004 0.7 78
2020-02-11 10:00:00 8.8 0 Calma 7 Este 0 1004.1 0.8 99
2020-02-11 09:00:00 6.2 0 Calma 5 Sudeste 0 1003.5 0.1 99
2020-02-11 08:00:00 4.9 0 Calma 7 Nordeste 0 1003.3 -0.2 99
2020-02-11 07:00:00 5.6 0 Calma 3 Sudeste 0 1003.3 -1 99
2020-02-11 06:00:00 6.1 0 Calma -- -- 0 1003.4 -1.5 99
2020-02-11 05:00:00 6.2 0 Calma -- -- 0 1003.5 -1.9 99
2020-02-11 04:00:00 6.2 0 Calma -- -- 0 1004.3 -1.4 99
2020-02-11 03:00:00 7.1 0 Calma 3 Sudeste 0 1004.9 -0.9 99
2020-02-11 02:00:00 8 0 Calma 8 Este 0 1005.4 -0.6 98
2020-02-11 01:00:00 7.9 3 Este 6 Este 0 1005.7 -0.1 98
2020-02-11 00:00:00 8.4 0 Calma 5 Sur 0 1005.8 0.3 97
2020-02-10 23:00:00 9.8 2 Este 5 Este 0 1006 0.7 94
2020-02-10 22:00:00 10.6 3 Este 5 Este 0 1005.8 0.8 91
2020-02-10 21:00:00 11.5 0 Calma 6 Oeste 0 1005.5 0.6 87
2020-02-10 20:00:00 13.3 2 Sudoeste 6 Sudoeste 0 1005.3 0.2 74
2020-02-10 19:00:00 15.4 2 Sur 8 Sur 0 1005 -0.5 63
2020-02-10 18:00:00 19.9 2 Sudoeste 6 Sur 0 1004.9 -1.2 41
2020-02-10 17:00:00 22.1 0 Calma 6 Este 0 1005.1 -2.3 36
2020-02-10 16:00:00 20.8 2 Sudeste 10 Oeste 0 1005.5 -3 38
2020-02-10 15:00:00 21.1 0 Calma 6 Noroeste 0 1006.1 -3.2 37
2020-02-10 14:00:00 19.1 2 Sudeste 7 Sudeste 0 1007.4 -2.2 42
2020-02-10 13:00:00 16.5 3 Este 14 Este 0 1008.5 -1.1 48
2020-02-10 12:00:00 14.2 8 Sudeste 15 Sudeste 0 1009.3 0.3 57
2020-02-10 11:00:00 11.9 6 Sudeste 11 Este 0 1009.6 0.7 71
2020-02-10 10:00:00 8.1 4 Este 7 Este 0 1009.6 1.2 99
2020-02-10 09:00:00 5.9 3 Este 6 Sudeste 0 1009 1 99
2020-02-10 08:00:00 4.8 0 Calma 2 Sudeste 0 1008.9 1 99
2020-02-10 07:00:00 5 0 Calma 3 Sudeste 0 1008.4 0.3 99
2020-02-10 06:00:00 5.6 0 Calma 0 Calma 0 1008 0 99
2020-02-10 05:00:00 5.8 0 Calma 4 Sudeste 0 1007.9 -0.3 99
2020-02-10 04:00:00 6.3 0 Calma 3 Este 0 1008.1 0 99
2020-02-10 03:00:00 6.9 0 Calma 2 Este 0 1008 0 99
2020-02-10 02:00:00 6.8 0 Calma 6 Sudeste 0 1008.2 0.3 99
2020-02-10 01:00:00 7.4 2 Este 5 Este 0 1008.1 0.9 99
2020-02-10 00:00:00 8.2 0 Calma 4 Sudeste 0 1008 1.3 98
2020-02-09 23:00:00 8.7 0 Calma 4 Este 0 1007.9 1.7 95
2020-02-09 22:00:00 10.1 0 Calma 5 Sudoeste 0 1007.2 1.5 91
2020-02-09 21:00:00 10.6 0 Calma 0 Calma 0 1006.7 2 88
2020-02-09 20:00:00 12 0 Calma 5 Sudoeste 0 1006.2 1.8 76
2020-02-09 19:00:00 14.2 0 Calma 5 Sudoeste 0 1005.7 1.2 60
2020-02-09 18:00:00 18.1 2 Sur 6 Sudoeste 0 1004.7 -0.2 42
2020-02-09 17:00:00 19.3 3 Sur 10 Oeste 0 1004.4 -1 38
2020-02-09 16:00:00 19.1 4 Sur 10 Sudeste 0 1004.5 -1.8 38
2020-02-09 15:00:00 19.8 0 Calma 11 Este 0 1004.9 -2.3 40
2020-02-09 14:00:00 17.2 5 Sudeste 14 Sudeste 0 1005.4 -1.5 51
2020-02-09 13:00:00 15.9 8 Este 18 Sudeste 0 1006.3 0 61
2020-02-09 12:00:00 15.1 5 Este 12 Sudeste 0 1007.2 1.5 69
2020-02-09 11:00:00 13.2 3 Este 10 Sudeste 0 1006.9 2 81
2020-02-09 10:00:00 11.3 4 Este 8 Este 0 1006.3 1.9 93
2020-02-09 09:00:00 10.4 0 Calma 4 Norte 0 1005.7 2.2 97
2020-02-09 08:00:00 10.3 0 Calma 5 Sudeste 0 1004.9 1.5 97
2020-02-09 07:00:00 10 3 Este 6 Este 0 1004.4 1.1 96
2020-02-09 06:00:00 10.4 4 Sudeste 10 Sudeste 0 1003.5 -0.2 95
2020-02-09 05:00:00 9.7 0 Calma 7 Este 0 1003.4 -0.5 99
2020-02-09 04:00:00 9.8 6 Este 10 Este 0 1003.3 -1 99
2020-02-09 03:00:00 9.5 0 Calma 8 Sudeste 0 1003.7 -0.4 99
2020-02-09 02:00:00 9.2 3 Este 7 Este 0 1003.9 0.2 99
2020-02-09 01:00:00 9.4 0 Calma 3 Noroeste 0 1004.3 1 99
2020-02-09 00:00:00 9.9 0 Calma 4 Norte 0 1004.1 1.2 99
2020-02-08 23:00:00 9.2 0 Calma 4 Este 0 1003.7 1.4 99
2020-02-08 22:00:00 8.9 0 Calma 5 Este 0 1003.3 1.7 99
2020-02-08 21:00:00 9.9 0 Calma 6 Oeste 0 1002.9 1.8 97
2020-02-08 20:00:00 10.9 2 Oeste 5 Sur 0 1002.3 1.5 93
2020-02-08 19:00:00 13.7 5 Oeste 11 Oeste 0 1001.6 0.8 80
2020-02-08 18:00:00 14.9 8 Oeste 17 Oeste 0 1001.1 0.2 73
2020-02-08 17:00:00 14.8 10 Oeste 16 Oeste 0 1000.8 -1.1 74
2020-02-08 16:00:00 14.7 13 Oeste 19 Oeste 0 1000.8 -1.8 73
2020-02-08 15:00:00 15 10 Oeste 21 Oeste 0 1000.9 -1.8 70
2020-02-08 14:00:00 14.7 10 Noroeste 16 Oeste 0 1001.9 -0.4 81
2020-02-08 13:00:00 12.4 7 Noroeste 12 Noroeste 0 1002.6 0.6 86
2020-02-08 12:00:00 12 0 Calma 5 Este 0 1002.7 1.2 86
2020-02-08 11:00:00 10.4 2 Este 9 Sudeste 0 1002.3 1.1 96
2020-02-08 10:00:00 9.8 3 Sudeste 8 Sudeste 0 1002 1.3 97
2020-02-08 09:00:00 9.3 0 Calma 4 Sudeste 0 1001.5 1.2 94
2020-02-08 08:00:00 9.1 0 Calma 4 Sudeste 0 1001.2 0.7 93
2020-02-08 07:00:00 8.9 0 Calma 7 Este 0 1000.7 0.2 95
2020-02-08 06:00:00 8.4 3 Este 8 Este 0 1000.3 -0.2 99
2020-02-08 05:00:00 7.9 0 Calma 4 Este 0 1000.5 0 99
2020-02-08 04:00:00 7.3 0 Calma 5 Este 0 1000.5 0 99
2020-02-08 03:00:00 6.6 0 Calma -- -- 0 1000.5 0 99
2020-02-08 02:00:00 6.4 0 Calma 0 Calma 0 1000.5 0.1 99
2020-02-08 01:00:00 6.4 0 Calma 5 Este 0 1000.5 0.6 99
2020-02-08 00:00:00 7.9 0 Calma 4 Noroeste 0 1000.5 0.9 99
2020-02-07 23:00:00 8.3 0 Calma 5 Sudeste 0 1000.4 1.2 97
2020-02-07 22:00:00 10.1 0 Calma 6 Sudoeste 0 999.9 1.1 90
2020-02-07 21:00:00 11.3 5 Oeste 9 Oeste 0 999.6 1.4 83
2020-02-07 20:00:00 12.4 5 Noroeste 14 Oeste 0 999.2 1 70
2020-02-07 19:00:00 14 6 Sudoeste 10 Sudoeste 0 998.8 0.5 61
2020-02-07 18:00:00 16.6 6 Sudoeste 18 Sudoeste 0 998.2 -0.4 49
2020-02-07 17:00:00 17.5 10 Sudoeste 19 Sudoeste 0 998.2 -1 47
2020-02-07 16:00:00 18.4 11 Oeste 21 Oeste 0 998.3 -1.9 46
2020-02-07 15:00:00 17.7 14 Oeste 21 Oeste 0 998.6 -2 49
2020-02-07 14:00:00 15.5 10 Oeste 18 Noroeste 0 999.2 -1.4 54
2020-02-07 13:00:00 15.2 0 Calma 9 Noroeste 0 1000.2 0 53
2020-02-07 12:00:00 13.8 0 Calma 5 Este 0 1000.6 1 55
2020-02-07 11:00:00 10.4 0 Calma 6 Este 0 1000.6 1.8 91
2020-02-07 10:00:00 6.9 0 Calma 6 Este 0 1000.2 2.1 99
2020-02-07 09:00:00 5.1 0 Calma -- -- 0 999.6 1.7 99
2020-02-07 08:00:00 4.9 0 Calma 0 Calma 0 998.8 1.1 99
2020-02-07 07:00:00 5.7 0 Calma -- -- 0 998.1 0.4 99
2020-02-07 06:00:00 5.5 0 Calma 2 Este 0 997.9 -0.1 99
2020-02-07 05:00:00 5.8 0 Calma -- -- 0 997.7 -0.6 99
2020-02-07 04:00:00 6 0 Calma 5 Este 0 997.7 -0.8 99
2020-02-07 03:00:00 5.8 0 Calma 4 Sudeste 0 998 -0.3 99
2020-02-07 02:00:00 6.3 0 Calma 4 Este 0 998.3 0.5 99
2020-02-07 01:00:00 7.4 0 Calma -- -- 0 998.5 0.9 99
2020-02-07 00:00:00 7.5 0 Calma 5 Este 0 998.3 1 99
2020-02-06 23:00:00 8.4 0 Calma 5 Noroeste 0 997.8 0.7 96
2020-02-06 22:00:00 9.6 3 Oeste 6 Oeste 0 997.6 1.1 93
2020-02-06 21:00:00 10.7 0 Calma 5 Noroeste 0 997.3 0.9 84
2020-02-06 20:00:00 12.6 2 Oeste 5 Oeste 0 997.1 1 72
2020-02-06 19:00:00 14.2 2 Oeste 5 Sudoeste 0 996.5 0.2 62
2020-02-06 18:00:00 17.4 3 Oeste 6 Oeste 0 996.4 -0.5 42
2020-02-06 17:00:00 19.1 2 Oeste 8 Este 0 996.1 -1.8 38
2020-02-06 16:00:00 19.2 0 Calma 13 Este 0 996.3 -2.9 39
2020-02-06 15:00:00 17.5 8 Este 19 Nordeste 0 996.9 -3.1 42
2020-02-06 14:00:00 16.6 6 Este 18 Este 0 997.9 -2.1 45
2020-02-06 13:00:00 15.2 7 Este 17 Este 0 999.2 -0.8 50
2020-02-06 12:00:00 14 9 Este 18 Este 0 1000 0.4 59
2020-02-06 11:00:00 11.5 0 Calma 5 Nordeste 0 1000 0.9 83
2020-02-06 10:00:00 7.4 0 Calma 2 Sur 0 1000 1.3 99
2020-02-06 09:00:00 4.5 0 Calma 5 Sudeste 0 999.6 1.1 99
2020-02-06 08:00:00 4.6 0 Calma 4 Sudeste 0 999.1 0.3 99
2020-02-06 07:00:00 5.1 0 Calma 3 Oeste 0 998.7 0.3 99
2020-02-06 06:00:00 4.7 3 Oeste 4 Oeste 0 998.5 0 99
2020-02-06 05:00:00 6.1 2 Noroeste 4 Noroeste 0 998.8 -0.1 99
2020-02-06 04:00:00 6.9 0 Calma 3 Oeste 0 998.4 -0.9 99
2020-02-06 03:00:00 8.3 0 Calma 14 Este 0 998.5 -1.5 96
2020-02-06 02:00:00 7.7 0 Calma 6 Este 0 998.9 -1.3 99
2020-02-06 01:00:00 7.9 0 Calma 5 Sur 0 999.3 -0.2 98
2020-02-06 00:00:00 9.3 0 Calma 6 Oeste 0 1000 1.5 95
2020-02-05 23:00:00 12.2 4 Noroeste 17 Sudoeste 0 1000.2 2 83
2020-02-05 22:00:00 13.6 12 Sudoeste 16 Sudoeste 0 999.5 1.6 77
2020-02-05 21:00:00 14.3 10 Oeste 13 Oeste 0 998.5 0.9 74
2020-02-05 20:00:00 14.1 8 Oeste 17 Oeste 0 998.2 0.5 73
2020-02-05 19:00:00 16.6 8 Oeste 17 Sudoeste 0 997.9 0.1 51
2020-02-05 18:00:00 18.8 13 Oeste 18 Oeste 0 997.6 -0.6 37
2020-02-05 17:00:00 21.8 3 Sudoeste 7 Sudoeste 0 997.7 -1.4 30
2020-02-05 16:00:00 21.6 3 Sur 11 Sudeste 0 997.8 -2.1 31
2020-02-05 15:00:00 20.3 6 Este 14 Sudeste 0 998.2 -2.7 35
2020-02-05 14:00:00 19.4 5 Este 18 Este 0 999.1 -1.9 37
2020-02-05 13:00:00 18.6 9 Este 25 Este 0 999.9 -1 41
2020-02-05 12:00:00 16.7 15 Este 27 Este 0 1000.9 0.4 44
2020-02-05 11:00:00 14.4 9 Este 17 Este 0 1001 0.8 56
2020-02-05 10:00:00 11.7 9 Este 18 Sudeste 0 1000.9 0.8 68
2020-02-05 09:00:00 7.7 5 Este 14 Este 0 1000.5 0.3 87
2020-02-05 08:00:00 7 7 Sudeste 12 Este 0 1000.2 -0.3 98
2020-02-05 07:00:00 6.6 4 Sudeste 8 Este 0 1000.1 -0.8 99
2020-02-05 06:00:00 6.5 5 Este 9 Este 0 1000.2 -1.2 99
2020-02-05 05:00:00 6.5 0 Calma 6 Sudeste 0 1000.5 -1.2 99
2020-02-05 04:00:00 7.2 0 Calma -- -- 0 1000.9 -1.3 99
2020-02-05 03:00:00 7.4 0 Calma 5 Noroeste 0 1001.4 -0.8 99
2020-02-05 02:00:00 7.5 0 Calma -- -- 0 1001.7 -0.2 99
2020-02-05 01:00:00 8.3 0 Calma 4 Oeste 0 1002.2 0.8 99
2020-02-05 00:00:00 8.6 0 Calma 8 Este 0 1002.2 1 96
2020-02-04 23:00:00 9.4 4 Este 8 Este 0 1001.9 0.8 96
2020-02-04 22:00:00 9.7 0 Calma 7 Sudeste 0 1001.4 0.6 94
2020-02-04 21:00:00 10.9 0 Calma 4 Sudeste 0 1001.2 0.8 91
2020-02-04 20:00:00 12.6 0 Calma 6 Noroeste 0 1001.1 0.5 80
2020-02-04 19:00:00 15.1 2 Sur 8 Sur 0 1000.8 -0.2 63
2020-02-04 18:00:00 19.8 3 Sudoeste 5 Sudoeste 0 1000.4 -1.2 39
2020-02-04 12:00:00 15.4 4 Nordeste 13 Este 0 1005.4 -0.1 61
2020-02-04 11:00:00 12.3 6 Este 13 Este 0 1005.7 0.6 74
2020-02-04 10:00:00 8.3 4 Este 10 Este 0 1005.7 0.9 99
2020-02-04 09:00:00 5.1 0 Calma 5 Este 0 1005.5 0.6 99
2020-02-04 08:00:00 4.9 2 Sudeste 6 Este 0 1005.1 0.3 99
2020-02-04 07:00:00 5 0 Calma 7 Oeste 0 1004.8 -0.2 99
2020-02-04 06:00:00 5.2 0 Calma 5 Oeste 0 1004.9 -0.4 99
2020-02-04 05:00:00 6.2 0 Calma 3 Este 0 1004.8 -0.8 99
2020-02-04 04:00:00 6.5 0 Calma 5 Oeste 0 1005 -0.9 99
2020-02-04 03:00:00 8 0 Calma 7 Este 0 1005.3 -0.6 99
2020-02-04 02:00:00 7.3 0 Calma 4 Sudeste 0 1005.6 0.1 99
2020-02-04 01:00:00 8.7 3 Oeste 6 Sudeste 0 1005.9 0.8 99
2020-02-04 00:00:00 9 0 Calma 4 Sudeste 0 1005.9 1.3 99
2020-02-03 23:00:00 9.2 2 Este 6 Este 0 1005.5 1.3 98
2020-02-03 22:00:00 10.2 0 Calma 6 Este 0 1005.1 1.8 95
2020-02-03 21:00:00 11.3 0 Calma 4 Este 0 1004.6 1.6 89
2020-02-03 20:00:00 13.2 0 Calma 8 Oeste 0 1004.2 1.3 74
2020-02-03 19:00:00 16.5 8 Sur 9 Sur 0 1003.3 0.3 54
2020-02-03 18:00:00 21.5 5 Oeste 7 Oeste 0 1003 -0.2 37
2020-02-03 17:00:00 23.4 4 Noroeste 8 Oeste 0 1002.9 -1.3 30
2020-02-03 16:00:00 24.5 0 Calma 11 Este 0 1003 -2 30
2020-02-03 15:00:00 22.4 3 Este 8 Este 0 1003.2 -2.5 32
2020-02-03 14:00:00 20.5 5 Este 11 Sudeste 0 1004.2 -1.5 41
2020-02-03 13:00:00 18.1 6 Este 12 Sudeste 0 1005 -0.7 51
2020-02-03 12:00:00 16.5 4 Este 12 Este 0 1005.7 0.5 56
2020-02-03 11:00:00 14.9 6 Este 16 Este 0 1005.7 0.6 64
2020-02-03 10:00:00 12.2 6 Este 16 Sudeste 0 1005.7 1.1 80
2020-02-03 09:00:00 10.5 8 Sudeste 17 Sudeste 0 1005.2 0.5 84
2020-02-03 08:00:00 8.3 6 Este 13 Este 0 1005.1 0.6 98
2020-02-03 07:00:00 8 6 Este 9 Este 0 1004.6 0.1 98
2020-02-03 06:00:00 9 5 Este 13 Este 0 1004.7 -0.2 95
2020-02-03 05:00:00 10.8 9 Este 15 Sudeste 0 1004.5 -0.6 91
2020-02-03 04:00:00 10.8 8 Este 13 Este 0 1004.5 -0.9 95
2020-02-03 03:00:00 10.6 9 Este 10 Este 0 1004.9 -0.5 98
2020-02-03 02:00:00 10.1 0 Calma 12 Este 0 1005.1 -0.1 99
2020-02-03 01:00:00 10.3 4 Este 8 Sudeste 0 1005.4 0.1 99
2020-02-03 00:00:00 9.8 0 Calma 5 Este 0 1005.4 0.5 99
2020-02-02 23:00:00 10.2 3 Este 5 Este 0 1005.2 0.7 98
2020-02-02 22:00:00 11.7 0 Calma 3 Sudeste 0 1005.3 1.8 97
2020-02-02 21:00:00 12.3 0 Calma 3 Sudeste 0 1004.9 1.7 94
2020-02-02 20:00:00 14.9 2 Oeste 8 Norte 0 1004.5 1.6 81
2020-02-02 19:00:00 16.8 3 Sur 6 Sudoeste 0 1003.5 0.5 71
2020-02-02 18:00:00 19.7 0 Calma 0 Calma 0 1003.2 -0.2 52
2020-02-02 17:00:00 23.7 0 Calma 9 Este 0 1002.9 -1.4 40
2020-02-02 16:00:00 21.3 5 Sudeste 13 Este 0 1003 -2.5 46
2020-02-02 15:00:00 20.3 6 Sudeste 15 Este 0 1003.4 -3.1 52
2020-02-02 14:00:00 18.3 9 Sudeste 17 Este 0 1004.3 -2.2 59
2020-02-02 13:00:00 16.4 9 Este 19 Este 0 1005.5 -0.7 66
2020-02-02 12:00:00 14.6 9 Sudeste 20 Este 0 1006.5 0.8 75
2020-02-02 11:00:00 12.3 9 Sudeste 18 Este 0 1006.5 1.8 94
2020-02-02 10:00:00 9.2 9 Este 15 Este 0 1006.2 1.8 99
2020-02-02 09:00:00 7 0 Calma -- -- 0 1005.7 1.8 99
2020-02-02 08:00:00 6.6 0 Calma 4 Sudeste 0 1004.7 0.8 99
2020-02-02 07:00:00 8 0 Calma 4 Este 0 1004.4 0.1 99
2020-02-02 06:00:00 8 0 Calma 5 Este 0 1003.9 -0.4 99
2020-02-02 05:00:00 9.3 2 Este 7 Sudeste 0 1003.9 -0.4 99
2020-02-02 04:00:00 8.7 4 Sudeste 6 Sudeste 0 1004.3 0 99
2020-02-02 03:00:00 9.6 4 Este 8 Sudeste 0 1004.3 0.1 99
2020-02-02 02:00:00 10.2 0 Calma 5 Sudoeste 0 1004.3 0 99
2020-02-02 01:00:00 10.6 0 Calma 8 Sudeste 0 1004.3 0.2 99
2020-02-02 00:00:00 11.3 0 Calma -- -- 0 1004.2 0.6 99
2020-02-01 23:00:00 12.7 0 Calma -- -- 0 1004.3 1 97
2020-02-01 22:00:00 14.1 0 Calma -- -- 0 1004.1 1.6 95
2020-02-01 21:00:00 15.2 0 Calma 0 Calma 0 1003.6 1.3 90
2020-02-01 20:00:00 16 0 Calma 4 Sudeste 0 1003.3 1 87
2020-02-01 19:00:00 16.9 4 Este 8 Este 0 1002.5 -0.2 79
2020-02-01 18:00:00 17.9 3 Este 9 Este 0 1002.3 -1 65
2020-02-01 17:00:00 19.8 0 Calma 8 Sudoeste 0 1002.3 -1.7 56
2020-02-01 16:00:00 18.6 4 Oeste 10 Oeste 0 1002.7 -1.2 63
2020-02-01 15:00:00 16.6 3 Oeste 13 Oeste 0 1003.3 -0.6 76
2020-02-01 14:00:00 16.2 7 Noroeste 14 Oeste 0 1004 0.6 80
2020-02-01 13:00:00 15.5 5 Noroeste 14 Oeste 0 1003.9 1.3 81
2020-02-01 12:00:00 14.2 3 Noroeste 8 Noroeste 0 1003.9 1.7 95
2020-02-01 11:00:00 13.6 4 Noroeste 8 Noroeste 0 1003.4 1.6 99
2020-02-01 10:00:00 12.9 0 Calma 6 Sudeste 0 1002.6 1.2 99
2020-02-01 09:00:00 12.7 0 Calma -- -- 0.1 1002.2 1.3 99
2020-02-01 08:00:00 12.7 0 Calma -- -- 0.1 1001.8 0.9 99
2020-02-01 07:00:00 12.8 0 Calma -- -- 0 1001.4 0.5 98
2020-02-01 06:00:00 12.9 0 Calma 5 Sudoeste 0 1000.9 -0.3 98
2020-02-01 05:00:00 13 0 Calma 6 Oeste 0 1000.9 -0.4 98
2020-02-01 04:00:00 12.6 3 Oeste 5 Oeste 0 1000.9 -0.5 98
2020-02-01 03:00:00 12.3 0 Calma 3 Oeste 0 1001.2 -0.5 98
2020-02-01 02:00:00 12.4 0 Calma 6 Oeste 0 1001.3 -0.1 98
2020-02-01 01:00:00 12.7 0 Calma 12 Oeste 0 1001.4 0.1 96
2020-02-01 00:00:00 13.8 10 Oeste 18 Oeste 0 1001.7 0.8 93
2020-01-31 23:00:00 14.1 10 Oeste 14 Oeste 0 1001.4 0.9 91
2020-01-31 22:00:00 14.4 6 Oeste 11 Oeste 0 1001.3 1.1 89
2020-01-31 21:00:00 14.1 0 Calma 3 Oeste 0 1000.9 0.9 87
2020-01-31 20:00:00 14.2 3 Sudoeste 6 Sudoeste 0 1000.5 0.6 85
2020-01-31 19:00:00 13.6 5 Sur 7 Sudoeste 0 1000.2 0.2 85
2020-01-31 18:00:00 15.9 3 Oeste 10 Sudoeste 0 1000 -0.4 64
2020-01-31 17:00:00 17.1 6 Sudoeste 15 Oeste 0 999.9 -0.9 57
2020-01-31 16:00:00 17.4 10 Oeste 17 Oeste 0 1000 -1.9 54
2020-01-31 15:00:00 18.1 4 Noroeste 12 Oeste 0 1000.4 -2.4 48
2020-01-31 14:00:00 18.3 0 Calma 9 Sudoeste 0 1000.8 -2.2 49
2020-01-31 13:00:00 17.3 0 Calma 7 Sudeste 0 1001.9 -1 59
2020-01-31 12:00:00 14.3 3 Este 7 Este 0 1002.8 0.1 72
2020-01-31 11:00:00 13.5 0 Calma 6 Este 0 1003 0.9 80
2020-01-31 10:00:00 11 0 Calma 3 Este 0 1002.9 1.2 94
2020-01-31 09:00:00 9.8 0 Calma 9 Sudeste 0 1002.7 1.1 99
2020-01-31 08:00:00 9.4 4 Este 7 Sudeste 0 1002.1 0.2 99
2020-01-31 07:00:00 9.3 0 Calma -- -- 0 1001.7 -0.6 99
2020-01-31 06:00:00 9.1 0 Calma -- -- 0 1001.6 -0.8 99
2020-01-31 05:00:00 9.1 0 Calma -- -- 0 1001.9 -0.6 99
2020-01-31 04:00:00 9.4 0 Calma 0 Calma 0 1002.3 -0.3 99
2020-01-31 03:00:00 9.2 0 Calma 5 Este 0 1002.4 -0.2 99
2020-01-31 02:00:00 9.2 0 Calma 5 Este 0 1002.5 -0.1 99
2020-01-31 01:00:00 9.1 0 Calma -- -- 0 1002.6 0.3 99
2020-01-31 00:00:00 9.1 0 Calma 6 Oeste 0 1002.6 0.6 99
2020-01-30 23:00:00 9.6 0 Calma 9 Sudoeste 0 1002.6 1.4 97
2020-01-30 22:00:00 10.4 2 Sudoeste 5 Sudoeste 0 1002.3 1 97
2020-01-30 21:00:00 10.2 0 Calma 4 Sudoeste 0 1002 1.2 95
2020-01-30 20:00:00 12 2 Noroeste 10 Oeste 0 1001.2 0.5 87
2020-01-30 19:00:00 12.6 6 Oeste 12 Oeste 0 1001.3 0.5 82
2020-01-30 18:00:00 14.3 9 Oeste 14 Oeste 0 1000.8 -0.5 71
2020-01-30 17:00:00 14.5 8 Oeste 21 Oeste 0 1000.7 -1.1 69
2020-01-30 16:00:00 14.9 13 Oeste 20 Noroeste 0 1000.8 -1.7 67
2020-01-30 15:00:00 14.9 14 Oeste 19 Noroeste 0 1001.3 -1.9 74
2020-01-30 14:00:00 14.1 8 Noroeste 13 Noroeste 0 1001.8 -1.5 75
2020-01-30 13:00:00 13.1 0 Calma 5 Este 0 1002.5 -0.2 88
2020-01-30 12:00:00 11 0 Calma 6 Sudeste 0 1003.2 1.1 99
2020-01-30 11:00:00 10.1 0 Calma 2 Este 0 1003.3 1.7 99
2020-01-30 10:00:00 8.9 0 Calma -- -- 0 1002.7 1.6 99
2020-01-30 09:00:00 8.6 0 Calma -- -- 0 1002.1 1.2 99
2020-01-30 08:00:00 8.5 0 Calma 5 Este 0 1001.6 0.8 99
2020-01-30 07:00:00 8.3 0 Calma 0 Calma 0 1001.1 0.1 99
2020-01-30 06:00:00 7.9 0 Calma 0 Calma 0 1000.9 -0.3 99
2020-01-30 05:00:00 7.2 0 Calma 3 Este 0 1000.8 -0.5 99
2020-01-30 04:00:00 7 0 Calma -- -- 0 1001 -0.6 99
2020-01-30 03:00:00 7.6 0 Calma 5 Sudeste 0 1001.2 -0.3 99
2020-01-30 02:00:00 7 2 Este 4 Este 0 1001.3 -0.1 99
2020-01-30 01:00:00 7.7 0 Calma 4 Sudoeste 0 1001.6 0.5 99
2020-01-30 00:00:00 8.8 0 Calma 4 Sudeste 0 1001.5 0.5 99
2020-01-29 23:00:00 9.2 0 Calma 4 Este 0 1001.4 0.9 99
2020-01-29 22:00:00 10.5 0 Calma 4 Sur 0 1001.1 1.2 98
2020-01-29 21:00:00 10.9 0 Calma 6 Oeste 0 1001 1.5 96
2020-01-29 20:00:00 11.8 3 Oeste 6 Sur 0 1000.5 1.1 92
2020-01-29 19:00:00 13 2 Sur 6 Sur 0 999.9 0.6 83
2020-01-29 18:00:00 16.5 0 Calma 5 Sudoeste 0 999.5 -0.4 59
2020-01-29 17:00:00 17.2 0 Calma 4 Oeste 0 999.4 -1.1 55
2020-01-29 16:00:00 17.1 0 Calma 7 Este 0 999.3 -2.1 55
2020-01-29 15:00:00 17.4 2 Nordeste 10 Este 0 999.9 -2.4 58
2020-01-29 14:00:00 16.1 5 Sudeste 13 Sudeste 0 1000.5 -1.9 65
2020-01-29 13:00:00 14.9 6 Sudeste 15 Este 0 1001.4 -0.9 70
2020-01-29 12:00:00 13 6 Este 12 Este 0 1002.3 0.6 81
2020-01-29 11:00:00 11.6 0 Calma 6 Este 0 1002.4 1.1 99
2020-01-29 10:00:00 9.5 0 Calma 4 Este 0 1002.3 1.5 99
2020-01-29 09:00:00 8.8 0 Calma 3 Sudeste 0 1001.7 1.1 99
2020-01-29 08:00:00 8.3 0 Calma 3 Este 0 1001.3 0.5 99
2020-01-29 07:00:00 7.9 0 Calma -- -- 0 1000.8 -0.3 99
2020-01-29 06:00:00 8.8 0 Calma 5 Oeste 0 1000.6 -0.5 99
2020-01-29 05:00:00 9.5 0 Calma 4 Sur 0 1000.8 -0.3 99
2020-01-29 04:00:00 10 0 Calma 5 Este 0 1001.1 -0.3 99
2020-01-29 03:00:00 10.8 0 Calma 4 Sudeste 0 1001.1 -0.6 98
2020-01-29 02:00:00 10.9 0 Calma 3 Este 0 1001.1 -0.6 98
2020-01-29 01:00:00 10.9 0 Calma 4 Oeste 0 1001.4 -0.3 98
2020-01-29 00:00:00 10.9 0 Calma 6 Noroeste 0 1001.7 0.2 97
2020-01-28 23:00:00 11.1 0 Calma 3 Este 0 1001.7 0.4 97
2020-01-28 22:00:00 10.8 0 Calma 5 Este 0 1001.7 0.7 98
2020-01-28 21:00:00 11.2 0 Calma 6 Oeste 0 1001.5 0.7 96
2020-01-28 20:00:00 11.5 3 Oeste 5 Oeste 0 1001.3 0.7 94
2020-01-28 19:00:00 12.8 0 Calma 6 Sudoeste 0 1001 0.5 86
2020-01-28 18:00:00 14.3 3 Oeste 6 Oeste 0 1000.8 -0.1 75
2020-01-28 17:00:00 14.5 3 Oeste 10 Oeste 0 1000.6 -1.1 73
2020-01-28 16:00:00 14.4 5 Oeste 11 Oeste 0 1000.5 -2 70
2020-01-28 15:00:00 14.4 4 Oeste 11 Noroeste 0 1000.9 -2.2 69
2020-01-28 14:00:00 13.6 4 Noroeste 9 Noroeste 0 1001.7 -1.2 74
2020-01-28 13:00:00 12.6 2 Noroeste 6 Noroeste 0 1002.5 0.2 76
2020-01-28 12:00:00 11.3 0 Calma 6 Este 0 1003.1 0.8 83
2020-01-28 11:00:00 10.1 0 Calma 7 Este 0 1002.9 1.3 90
2020-01-28 10:00:00 9.8 0 Calma 10 Este 0 1002.3 0.9 95
2020-01-28 09:00:00 9.2 3 Sudeste 9 Sudeste 0 1002.3 0.9 98
2020-01-28 08:00:00 8.8 3 Este 8 Este 0 1001.6 0.4 97
2020-01-28 07:00:00 8.8 0 Calma 5 Este 0 1001.4 -0.2 96
2020-01-28 06:00:00 8.8 0 Calma 8 Este 0 1001.4 -0.5 96
2020-01-28 05:00:00 8.7 2 Este 8 Este 0 1001.2 -0.9 97
2020-01-28 04:00:00 8.7 0 Calma -- -- 0 1001.6 -0.8 98
2020-01-28 03:00:00 8.6 0 Calma 0 Calma 0 1001.9 -0.6 99
2020-01-28 02:00:00 8.3 0 Calma -- -- 0 1002.1 -0.2 99
2020-01-28 01:00:00 8.3 0 Calma 5 Este 0 1002.4 0.2 99
2020-01-28 00:00:00 7.7 0 Calma 7 Este 0 1002.5 0.8 99
2020-01-27 23:00:00 7.5 0 Calma 0 Calma 0 1002.3 0.9 99
2020-01-27 22:00:00 7.5 0 Calma 5 Sudoeste 0 1002.2 1 99
2020-01-27 21:00:00 7.3 0 Calma -- -- 0 1001.7 1 98
2020-01-27 20:00:00 8.2 0 Calma 4 Sudoeste 0 1001.4 0.7 96
2020-01-27 19:00:00 9.2 0 Calma 5 Sudoeste 0 1001.2 0.5 91
2020-01-27 18:00:00 11.5 0 Calma 3 Noroeste 0 1000.7 -0.4 73
2020-01-27 17:00:00 12.5 0 Calma 5 Este 0 1000.7 -1.2 65
2020-01-27 16:00:00 12.6 2 Sudeste 8 Sudeste 0 1000.7 -2.2 59
2020-01-27 15:00:00 13.3 0 Calma 11 Este 0 1001.1 -2.4 59
2020-01-27 14:00:00 10.7 3 Sudeste 12 Este 0 1001.9 -1.5 66
2020-01-27 13:00:00 9.8 2 Sudoeste 7 Este 0 1002.9 -0.4 70
2020-01-27 12:00:00 8.7 3 Este 9 Este 0 1003.5 0.7 82
2020-01-27 11:00:00 7.6 6 Este 10 Este 0 1003.4 0.7 92
2020-01-27 10:00:00 7.1 0 Calma 8 Sur 0 1003.3 1.3 99
2020-01-27 09:00:00 6.8 2 Sudeste 6 Este 0 1002.8 1.1 99
2020-01-27 08:00:00 6.6 0 Calma 4 Sudeste 0 1002.7 0.8 99
2020-01-27 07:00:00 6.4 2 Sudeste 8 Este 0 1002 -0.1 99
2020-01-27 06:00:00 6.3 0 Calma -- -- 0 1001.7 -0.7 99
2020-01-27 05:00:00 6 0 Calma 4 Este 0 1001.9 -0.7 99
2020-01-27 04:00:00 5.5 2 Este 6 Sudeste 0 1002.1 -0.7 99
2020-01-27 03:00:00 4.8 0 Calma -- -- 0 1002.4 -0.6 99
2020-01-27 02:00:00 4.6 0 Calma 4 Este 0 1002.6 -0.2 99
2020-01-27 01:00:00 4.5 0 Calma 3 Este 0 1002.8 0.2 99
2020-01-27 00:00:00 5.1 0 Calma 4 Este 0 1003 0.8 99
2020-01-26 23:00:00 5.4 0 Calma -- -- 0 1002.8 1.3 99
2020-01-26 22:00:00 6.3 0 Calma 3 Sur 0 1002.6 1.7 99
2020-01-26 21:00:00 7 0 Calma 6 Oeste 0 1002.2 2 98
2020-01-26 20:00:00 8.9 6 Oeste 13 Oeste 0 1001.5 1.3 94
2020-01-26 19:00:00 9.6 9 Oeste 12 Oeste 0 1000.9 1 91
2020-01-26 18:00:00 11.7 9 Oeste 16 Oeste 0 1000.2 -0.1 76
2020-01-26 17:00:00 12.3 9 Oeste 15 Oeste 0 1000.2 -0.4 69
2020-01-26 16:00:00 12.1 11 Oeste 19 Sudoeste 0 999.9 -1.3 70
2020-01-26 15:00:00 11.8 13 Sudoeste 23 Sudoeste 0 1000.3 -1 73
2020-01-26 14:00:00 11.8 15 Oeste 23 Oeste 0 1000.6 -0.2 75
2020-01-26 13:00:00 11.4 10 Oeste 18 Oeste 0 1001.2 1.2 77
2020-01-26 12:00:00 10.8 10 Oeste 16 Noroeste 0 1001.3 2.1 88
2020-01-26 11:00:00 9.9 11 Oeste 15 Oeste 0 1000.8 2.4 90
2020-01-26 10:00:00 9.1 7 Noroeste 10 Noroeste 0 1000 2.5 98
2020-01-26 09:00:00 8.6 6 Sudoeste 12 Oeste 0 999.2 2.3 99
2020-01-26 08:00:00 9.3 6 Oeste 13 Oeste 0 998.4 1.6 99
2020-01-26 07:00:00 9.4 6 Oeste 12 Noroeste 0 997.5 0.8 99
2020-01-26 06:00:00 9.4 3 Noroeste 9 Oeste 0 996.9 0.6 99
2020-01-26 05:00:00 9.3 5 Oeste 10 Oeste 0 996.8 1 99
2020-01-26 04:00:00 9.2 0 Calma 6 Oeste 0 996.7 1.1 99
2020-01-26 03:00:00 9.1 0 Calma 6 Noroeste 0 996.3 1.1 99
2020-01-26 02:00:00 9.1 0 Calma -- -- 0 995.8 0.7 99
2020-01-26 01:00:00 8.8 0 Calma 0 Calma 0 995.6 0.9 99
2020-01-26 00:00:00 8.5 0 Calma 0 Calma 0 995.2 1 99
2020-01-25 23:00:00 9.3 0 Calma -- -- 0 995.1 1.8 99
2020-01-25 22:00:00 9.2 0 Calma 4 Oeste 0.5 994.7 1.9 99
2020-01-25 21:00:00 9.4 0 Calma 12 Noroeste 4.6 994.2 2.1 99
2020-01-25 20:00:00 9.4 0 Calma 6 Sudeste 3 993.3 1.4 99
2020-01-25 19:00:00 9.6 0 Calma 6 Sudeste 0.3 992.8 0.9 98
2020-01-25 18:00:00 10.1 0 Calma 7 Este 0.9 992.1 0.2 97
2020-01-25 17:00:00 10.1 0 Calma 3 Noroeste 0.2 991.9 -0.5 95
2020-01-25 16:00:00 9.8 2 Noroeste 9 Noroeste 1.8 991.9 -1.6 96
2020-01-25 15:00:00 10.3 0 Calma 10 Este 1 991.9 -1.7 94
2020-01-25 14:00:00 10.5 3 Este 13 Este 0.3 992.4 -1 90
2020-01-25 13:00:00 9.6 4 Este 16 Sudeste 0.4 993.5 0.3 91
2020-01-25 12:00:00 9.8 6 Este 16 Este 0 993.6 0.8 94
2020-01-25 11:00:00 9.5 6 Este 13 Este 0.8 993.4 0.5 99
2020-01-25 10:00:00 9.3 7 Este 14 Sudeste 0.1 993.2 1.1 99
2020-01-25 09:00:00 9.1 2 Este 6 Este 1.3 992.8 0.7 99
2020-01-25 08:00:00 9.2 0 Calma 10 Sudeste 1.5 992.9 0.2 99
2020-01-25 07:00:00 9.1 5 Sudeste 10 Sur 0.1 992.1 -0.7 99
2020-01-25 06:00:00 9.1 2 Este 8 Este 0.2 992.1 -0.9 99
2020-01-25 05:00:00 9.3 3 Sur 6 Este 0.3 992.7 -0.9 99
2020-01-25 04:00:00 9.5 5 Sudeste 10 Sudeste 0.2 992.8 -0.8 99
2020-01-25 03:00:00 9.3 0 Calma 9 Noroeste 0.1 993 -0.7 99
2020-01-25 02:00:00 9.8 0 Calma 6 Noroeste 0.8 993.6 -0.1 99
2020-01-25 01:00:00 10 0 Calma 5 Oeste 0.1 993.6 -0.1 99
2020-01-25 00:00:00 10.1 0 Calma 5 Sur 0.5 993.7 0.4 98
2020-01-24 23:00:00 10.5 0 Calma 8 Noroeste 0.1 993.7 0.8 96
2020-01-24 22:00:00 11.5 7 Sur 17 Sur 0.2 993.7 1.1 80
2020-01-24 21:00:00 11.1 0 Calma 4 Este 0 993.3 0.7 92
2020-01-24 20:00:00 11.2 3 Sudeste 6 Sudeste 0 992.9 -0.1 90
2020-01-24 19:00:00 12 0 Calma 7 Sudeste 0 992.6 -0.5 79
2020-01-24 18:00:00 13.6 0 Calma 8 Este 0 992.6 -1.2 64
2020-01-24 17:00:00 14.8 3 Este 10 Este 0 993 -1.4 51
2020-01-24 16:00:00 14.9 3 Nordeste 11 Este 0 993.1 -2.6 49
2020-01-24 15:00:00 15.9 2 Sudeste 12 Este 0 993.8 -2.6 45
2020-01-24 14:00:00 15.3 5 Este 15 Sudeste 0 994.4 -2.2 52
2020-01-24 13:00:00 13.8 6 Sudeste 17 Este 0 995.7 -0.3 60
2020-01-24 12:00:00 11.8 11 Este 17 Este 0 996.4 0.7 72
2020-01-24 11:00:00 10.7 8 Este 13 Este 0 996.6 1.2 87
2020-01-24 10:00:00 9.1 6 Este 11 Este 0 996 1 99
2020-01-24 09:00:00 8.4 5 Este 11 Este 0 995.7 0.7 99
2020-01-24 08:00:00 8.4 2 Sudeste 8 Este 0 995.4 0.5 99
2020-01-24 07:00:00 8.2 4 Sudeste 9 Este 0 995 -0.1 99
2020-01-24 06:00:00 8.1 0 Calma 6 Este 0 995 -0.2 99
2020-01-24 05:00:00 8.4 0 Calma 4 Este 0.1 994.9 -0.3 99
2020-01-24 04:00:00 8.5 0 Calma 3 Noroeste 0.5 995.1 0.2 99
2020-01-24 03:00:00 8.6 0 Calma 13 Sudoeste 0.6 995.2 0.8 99
2020-01-24 02:00:00 9.2 10 Oeste 15 Sudoeste 0.3 995.2 1 99
2020-01-24 01:00:00 9.1 6 Noroeste 17 Sudoeste 0.1 994.9 1.3 97
2020-01-24 00:00:00 9.1 3 Sudoeste 6 Sur 0 994.4 1 98
2020-01-23 23:00:00 9.1 0 Calma 11 Noroeste 0 994.2 1.2 97
2020-01-23 22:00:00 8.9 3 Sudeste 6 Sudeste 0 993.6 1.2 97
2020-01-23 21:00:00 9.2 0 Calma 9 Sudeste 0 993.4 1.1 94
2020-01-23 20:00:00 9.9 2 Este 8 Este 0 993 0.6 92
2020-01-23 19:00:00 10.5 0 Calma 7 Sur 0 992.4 0.1 87
2020-01-23 18:00:00 11.5 2 Sur 8 Oeste 0 992.3 0 80
2020-01-23 17:00:00 12.6 4 Oeste 14 Sudoeste 0 992.4 -0.8 71
2020-01-23 16:00:00 12.9 6 Sudoeste 14 Sudoeste 0 992.3 -1.2 72
2020-01-23 15:00:00 12.5 5 Noroeste 14 Norte 0 992.3 -1.7 64
2020-01-23 14:00:00 11.7 5 Sudoeste 13 Sudoeste 0 993.2 -0.8 67
2020-01-23 13:00:00 11.8 3 Sudeste 12 Sudeste 0 993.5 0.2 66
2020-01-23 12:00:00 10.9 8 Sudeste 15 Este 0 994 0.9 69
2020-01-23 11:00:00 9.6 7 Sudeste 18 Este 0 994 1.3 77
2020-01-23 10:00:00 7.6 5 Sudeste 10 Sudeste 0.1 993.3 1 93
2020-01-23 09:00:00 6.8 0 Calma 7 Oeste 0 993.1 1 94
2020-01-23 08:00:00 7.4 4 Este 12 Sudeste 0 992.7 0.3 86
2020-01-23 07:00:00 7.3 6 Este 14 Sur 0 992.3 -0.4 84
2020-01-23 06:00:00 7.6 6 Sudeste 14 Sudeste 0 992.1 -0.3 90
2020-01-23 05:00:00 6.3 3 Sudeste 6 Este 0.2 992.4 -0.1 99
2020-01-23 04:00:00 5.9 5 Oeste 6 Oeste 0 992.7 0.1 99
2020-01-23 03:00:00 5 0 Calma 3 Este 0 992.4 0 99
2020-01-23 02:00:00 6 0 Calma 5 Sudeste 0 992.5 0.4 99
2020-01-23 01:00:00 5.7 2 Sudeste 6 Oeste 0 992.6 0.7 99
2020-01-23 00:00:00 7.5 0 Calma 6 Sudoeste 0 992.4 0.6 97
2020-01-22 23:00:00 8.8 0 Calma 6 Sudoeste 0 992.1 0.9 94
2020-01-22 22:00:00 9.2 0 Calma 6 Sudoeste 0 991.9 1.4 92
2020-01-22 21:00:00 9.8 0 Calma 7 Sudoeste 0 991.8 1.8 85
2020-01-22 20:00:00 10.1 4 Noroeste 17 Sudoeste 0 991.2 1.4 84
2020-01-22 19:00:00 11.3 12 Sudoeste 22 Sudeste 0 990.5 0.8 72
2020-01-22 18:00:00 12.6 0 Calma 3 Oeste 0 990 -0.1 61
2020-01-22 17:00:00 14 0 Calma 3 Sudeste 0 989.8 -1 50
2020-01-22 16:00:00 14.3 5 Este 14 Este 0 989.7 -1.8 46
2020-01-22 15:00:00 14.2 8 Este 17 Este 0 990.1 -2.1 51
2020-01-22 14:00:00 13.6 8 Este 20 Este 0 990.8 -1.4 53
2020-01-22 13:00:00 13.3 8 Este 18 Nordeste 0 991.5 -0.6 55
2020-01-22 12:00:00 11.8 5 Este 18 Este 0 992.2 0.5 61
2020-01-22 11:00:00 9.9 7 Este 13 Este 0 992.2 1 77
2020-01-22 10:00:00 7.7 5 Sudeste 12 Este 0 992.1 1.5 89
2020-01-22 09:00:00 5.9 3 Sudeste 10 Este 0 991.7 1.4 96
2020-01-22 08:00:00 4.7 3 Este 9 Este 0 991.2 0.6 98
2020-01-22 07:00:00 5.6 2 Sudeste 9 Este 0 990.6 -0.1 96
2020-01-22 06:00:00 6.9 6 Sudeste 9 Sudeste 0 990.3 -0.4 98
2020-01-22 05:00:00 6.1 2 Sudeste 8 Sudeste 0 990.6 -0.2 99
2020-01-22 04:00:00 6.4 5 Sudeste 13 Sudeste 0 990.7 -0.3 98
2020-01-22 03:00:00 6.9 5 Sudeste 11 Sudeste 0.2 990.7 0 98
2020-01-22 02:00:00 6.5 2 Sudeste 8 Este 0.3 990.8 0.6 98
2020-01-22 01:00:00 6.9 5 Sudeste 14 Sudeste 0.5 991 1.4 95
2020-01-22 00:00:00 7.1 7 Este 14 Este 0.1 990.7 1.4 90
2020-01-21 23:00:00 7.6 8 Este 14 Este 0 990.2 1.2 85
2020-01-21 22:00:00 5.2 2 Sudeste 5 Sudeste 0 989.6 0.9 98
2020-01-21 21:00:00 6.1 4 Sudeste 9 Este 0 989.3 1.2 93
2020-01-21 20:00:00 6.9 2 Este 6 Sudeste 0 989 1.3 83
2020-01-21 19:00:00 9.3 3 Este 16 Nordeste 0 988.7 1.5 67
2020-01-21 18:00:00 9.8 6 Nordeste 15 Norte 0 988.1 0.8 64
2020-01-21 17:00:00 10.4 4 Nordeste 18 Este 0 987.7 -0.8 63
2020-01-21 16:00:00 10.9 9 Este 24 Este 0 987.2 -2 58
2020-01-21 15:00:00 10.6 9 Este 28 Este 0 987.3 -2.4 57
2020-01-21 14:00:00 10.1 10 Este 29 Este 0 988.5 -1.3 60
2020-01-21 13:00:00 10.2 6 Este 14 Este 0 989.2 -0.7 59
2020-01-21 12:00:00 9.9 7 Nordeste 16 Nordeste 0 989.7 -0.4 60
2020-01-21 11:00:00 9 5 Nordeste 21 Este 0 989.8 -0.2 62
2020-01-21 10:00:00 8 11 Nordeste 23 Nordeste 0 989.9 -0.2 64
2020-01-21 09:00:00 6.3 4 Nordeste 12 Nordeste 0 990.1 -0.2 88
2020-01-21 08:00:00 6.9 2 Nordeste 10 Nordeste 0 990 -0.7 79
2020-01-21 07:00:00 5.3 2 Norte 7 Sudeste 0 990.1 -1.1 84
2020-01-21 06:00:00 3.3 0 Calma 6 Sudeste 0 990.3 -1 94
2020-01-21 05:00:00 4 2 Sudeste 6 Oeste 0 990.7 -0.8 89
2020-01-21 04:00:00 5.5 0 Calma 10 Sudeste 0 991.2 -0.9 79
2020-01-21 03:00:00 5.9 3 Sudeste 8 Este 0 991.3 -0.7 75
2020-01-21 02:00:00 7.9 6 Sudeste 17 Este 0 991.5 -0.2 65
2020-01-21 01:00:00 8.6 5 Este 15 Este 0 992.1 0.6 63
2020-01-21 00:00:00 8.8 6 Este 20 Nordeste 0 992 0.8 59
2020-01-20 23:00:00 9.5 7 Este 26 Nordeste 0 991.7 0.6 57
2020-01-20 22:00:00 9.9 11 Este 30 Nordeste 0 991.5 0.4 54
2020-01-20 21:00:00 9.9 9 Nordeste 35 Este 0 991.2 0.7 55
2020-01-20 20:00:00 9.9 11 Nordeste 31 Este 0 991.1 1 54
2020-01-20 19:00:00 9.4 7 Este 25 Nordeste 0 991.1 1.4 56
2020-01-20 18:00:00 10.1 11 Este 32 Sudeste 0 990.5 0.5 51
2020-01-20 17:00:00 10.7 10 Nordeste 33 Nordeste 0 990.1 -0.6 50
2020-01-20 16:00:00 11 11 Nordeste 39 Sudeste 0 989.7 -1.7 48
2020-01-20 15:00:00 10.8 14 Nordeste 40 Nordeste 0 990 -2.1 48
2020-01-20 14:00:00 11.4 12 Nordeste 41 Este 0 990.7 -2 46
2020-01-20 13:00:00 10.9 14 Nordeste 41 Este 0 991.4 -1.8 48
2020-01-20 12:00:00 9.2 15 Nordeste 39 Nordeste 0 992.1 -1 51
2020-01-20 11:00:00 6.8 10 Nordeste 30 Nordeste 0 992.7 -1 51
2020-01-20 10:00:00 6.4 9 Nordeste 27 Nordeste 0 993.2 -0.7 50
2020-01-20 09:00:00 5.7 4 Nordeste 15 Este 0 993.1 -1.1 56
2020-01-20 08:00:00 5.5 8 Nordeste 27 Nordeste 0 993.7 -0.9 54
2020-01-20 07:00:00 5.7 10 Nordeste 27 Nordeste 0 993.9 -1 53
2020-01-20 06:00:00 5.9 9 Nordeste 32 Nordeste 0 994.2 -1 51
2020-01-20 05:00:00 6.5 9 Nordeste 27 Este 0 994.6 -0.7 47
2020-01-20 04:00:00 6.6 8 Nordeste 26 Nordeste 0 994.9 -0.8 48
2020-01-20 03:00:00 6.8 7 Nordeste 26 Nordeste 0 995.2 -0.5 49
2020-01-20 02:00:00 7 8 Nordeste 24 Nordeste 0 995.3 -0.1 53
2020-01-20 01:00:00 6.5 5 Nordeste 16 Este 0 995.7 0.5 71
2020-01-20 00:00:00 6.8 8 Nordeste 24 Este 0 995.7 0.9 67
2020-01-19 23:00:00 7.2 8 Nordeste 27 Nordeste 0 995.4 0.5 67
2020-01-19 22:00:00 7.6 10 Nordeste 30 Este 0 995.2 0.7 69
2020-01-19 21:00:00 7.4 6 Nordeste 27 Nordeste 0 994.8 0.9 72
2020-01-19 20:00:00 7.8 8 Nordeste 23 Nordeste 0.1 994.9 1.7 71
2020-01-19 19:00:00 8.5 8 Nordeste 23 Nordeste 0 994.5 1.4 68
2020-01-19 18:00:00 9.8 10 Nordeste 27 Nordeste 0 993.9 0.4 60
2020-01-19 17:00:00 10.9 7 Nordeste 19 Norte 0 993.2 -0.8 55
2020-01-19 16:00:00 10.8 11 Noroeste 19 Noroeste 0 993.1 -1.8 63
2020-01-19 15:00:00 10.5 8 Nordeste 21 Norte 0 993.5 -1.9 63
2020-01-19 14:00:00 11.1 5 Norte 12 Nordeste 0 994 -1.2 61
2020-01-19 13:00:00 9.3 3 Sudoeste 12 Noroeste 0.6 994.9 0 82
2020-01-19 12:00:00 10.4 8 Oeste 12 Sudoeste 0 995.4 0.5 75
2020-01-19 11:00:00 9.6 9 Sudoeste 15 Oeste 0 995.2 0.5 81
2020-01-19 10:00:00 9.2 10 Sudoeste 17 Sudoeste 0 994.9 0 88
2020-01-19 09:00:00 7.1 0 Calma 9 Noroeste 0 994.9 0 99
2020-01-19 08:00:00 8 6 Oeste 14 Noroeste 0 994.7 -0.7 99
2020-01-19 07:00:00 8 7 Noroeste 13 Noroeste 0 994.9 -1.4 99
2020-01-19 06:00:00 8.1 0 Calma 16 Oeste 0 994.9 -2 99
2020-01-19 05:00:00 8.2 13 Oeste 21 Oeste 0 995.4 -1.7 99
2020-01-19 04:00:00 8.9 11 Oeste 17 Oeste 0 996.3 -1.8 99
2020-01-19 03:00:00 10 7 Noroeste 20 Oeste 0 996.9 -1.3 99
2020-01-19 02:00:00 10.3 9 Noroeste 21 Sudoeste 0 997.1 -1.8 99
2020-01-19 01:00:00 10.4 7 Noroeste 18 Sudoeste 0.1 998.1 -0.8 99
2020-01-19 00:00:00 10.9 13 Sudoeste 20 Sudoeste 0 998.2 -1 99
2020-01-18 23:00:00 10.3 4 Oeste 8 Noroeste 0.2 998.9 -1.7 99
2020-01-18 22:00:00 10.2 0 Calma 4 Noroeste 0 998.9 -1.7 99
2020-01-18 21:00:00 10 3 Sudeste 6 Sudeste 1.7 999.2 -2.1 99
2020-01-18 20:00:00 10.3 0 Calma 6 Noroeste 1.1 1000.6 -1.7 99
2020-01-18 19:00:00 10.1 0 Calma 2 Noroeste 0.6 1000.6 -2.4 99
2020-01-18 18:00:00 10.3 0 Calma 3 Oeste 0.3 1001.3 -2.2 99
2020-01-18 17:00:00 10.6 0 Calma 5 Norte 0.4 1002.3 -2.4 99
2020-01-18 16:00:00 10.7 3 Noroeste 5 Noroeste 0.1 1003 -2.7 94
2020-01-18 15:00:00 10.9 3 Este 9 Este 0 1003.5 -4 91
2020-01-18 14:00:00 10.5 3 Este 14 Este 0.2 1004.7 -3.2 94
2020-01-18 13:00:00 9.5 7 Este 13 Este 0.4 1005.7 -1.5 94
2020-01-18 12:00:00 9.4 5 Sudeste 10 Sur 0 1007.5 0.2 98
2020-01-18 11:00:00 8.4 0 Calma 6 Este 0.1 1007.9 0.9 99
2020-01-18 10:00:00 8 5 Sudeste 16 Sudeste 2 1007.2 1.5 99
2020-01-18 09:00:00 7.6 3 Este 7 Este 1 1007.3 1.1 99
2020-01-18 08:00:00 7.5 3 Noroeste 10 Sudeste 0 1007 0.8 96
2020-01-18 07:00:00 6.5 3 Este 6 Este 0 1005.7 -0.8 99
2020-01-18 06:00:00 6.6 0 Calma 4 Este 0 1006.2 -1 99
2020-01-18 05:00:00 6.6 0 Calma 3 Oeste 0 1006.2 -0.9 99
2020-01-18 04:00:00 6.8 0 Calma 8 Este 0 1006.5 -1.1 99
2020-01-18 03:00:00 6.5 0 Calma 6 Oeste 0 1007.2 -0.5 99
2020-01-18 02:00:00 6.3 0 Calma 5 Este 0 1007.1 -0.9 99
2020-01-18 01:00:00 8.1 4 Sudeste 12 Este 0 1007.6 -0.5 93
2020-01-18 00:00:00 7.8 4 Sudeste 8 Sudeste 0 1007.7 -0.2 99